sensor_id;sensor_type;location;lat;lon;timestamp;temperature;humidity
71254;HTU21D;59019;47.638;18.966;2023-02-01T00:00:16;3.36;90.49
71254;HTU21D;59019;47.638;18.966;2023-02-01T00:02:41;3.36;90.60
71254;HTU21D;59019;47.638;18.966;2023-02-01T00:05:08;3.54;91.04
71254;HTU21D;59019;47.638;18.966;2023-02-01T00:07:34;3.60;90.21
71254;HTU21D;59019;47.638;18.966;2023-02-01T00:10:00;3.54;90.28
71254;HTU21D;59019;47.638;18.966;2023-02-01T00:12:26;3.58;90.14
71254;HTU21D;59019;47.638;18.966;2023-02-01T00:14:51;3.57;90.21
71254;HTU21D;59019;47.638;18.966;2023-02-01T00:17:17;3.70;89.81
71254;HTU21D;59019;47.638;18.966;2023-02-01T00:19:42;3.67;89.25
71254;HTU21D;59019;47.638;18.966;2023-02-01T00:22:08;3.60;89.28
71254;HTU21D;59019;47.638;18.966;2023-02-01T00:24:33;3.60;89.48
71254;HTU21D;59019;47.638;18.966;2023-02-01T00:26:59;3.63;89.12
71254;HTU21D;59019;47.638;18.966;2023-02-01T00:29:24;3.71;89.20
71254;HTU21D;59019;47.638;18.966;2023-02-01T00:31:51;3.76;88.78
71254;HTU21D;59019;47.638;18.966;2023-02-01T00:34:17;3.76;88.97
71254;HTU21D;59019;47.638;18.966;2023-02-01T00:36:43;3.72;88.57
71254;HTU21D;59019;47.638;18.966;2023-02-01T00:39:10;3.64;88.60
71254;HTU21D;59019;47.638;18.966;2023-02-01T00:41:35;3.65;88.57
71254;HTU21D;59019;47.638;18.966;2023-02-01T00:44:02;3.64;88.22
71254;HTU21D;59019;47.638;18.966;2023-02-01T00:46:27;3.69;88.38
71254;HTU21D;59019;47.638;18.966;2023-02-01T00:48:53;3.65;88.28
71254;HTU21D;59019;47.638;18.966;2023-02-01T00:51:22;3.70;88.49
71254;HTU21D;59019;47.638;18.966;2023-02-01T00:53:48;3.85;88.17
71254;HTU21D;59019;47.638;18.966;2023-02-01T00:56:14;3.83;88.41
71254;HTU21D;59019;47.638;18.966;2023-02-01T00:58:41;3.84;87.77
71254;HTU21D;59019;47.638;18.966;2023-02-01T01:01:23;4.04;87.83
71254;HTU21D;59019;47.638;18.966;2023-02-01T01:03:54;4.01;87.37
71254;HTU21D;59019;47.638;18.966;2023-02-01T01:06:23;3.94;87.39
71254;HTU21D;59019;47.638;18.966;2023-02-01T01:08:51;3.93;87.35
71254;HTU21D;59019;47.638;18.966;2023-02-01T01:11:20;3.73;87.89
71254;HTU21D;59019;47.638;18.966;2023-02-01T01:13:47;3.76;87.86
71254;HTU21D;59019;47.638;18.966;2023-02-01T01:16:13;3.78;87.84
71254;HTU21D;59019;47.638;18.966;2023-02-01T01:18:39;3.71;87.78
71254;HTU21D;59019;47.638;18.966;2023-02-01T01:21:06;3.57;87.89
71254;HTU21D;59019;47.638;18.966;2023-02-01T01:23:33;3.52;88.21
71254;HTU21D;59019;47.638;18.966;2023-02-01T01:26:00;3.59;88.06
71254;HTU21D;59019;47.638;18.966;2023-02-01T01:28:25;3.70;87.92
71254;HTU21D;59019;47.638;18.966;2023-02-01T01:30:51;3.72;87.73
71254;HTU21D;59019;47.638;18.966;2023-02-01T01:33:18;3.57;87.91
71254;HTU21D;59019;47.638;18.966;2023-02-01T01:35:44;3.49;88.38
71254;HTU21D;59019;47.638;18.966;2023-02-01T01:38:10;3.54;88.22
71254;HTU21D;59019;47.638;18.966;2023-02-01T01:40:37;3.42;88.48
71254;HTU21D;59019;47.638;18.966;2023-02-01T01:43:02;3.38;88.80
71254;HTU21D;59019;47.638;18.966;2023-02-01T01:45:32;3.36;88.80
71254;HTU21D;59019;47.638;18.966;2023-02-01T01:50:42;3.45;89.07
71254;HTU21D;59019;47.638;18.966;2023-02-01T01:53:12;3.44;88.86
71254;HTU21D;59019;47.638;18.966;2023-02-01T01:55:41;3.36;89.05
71254;HTU21D;59019;47.638;18.966;2023-02-01T01:58:13;3.43;89.09
71254;HTU21D;59019;47.638;18.966;2023-02-01T02:00:39;3.34;89.11
71254;HTU21D;59019;47.638;18.966;2023-02-01T02:03:11;3.36;89.31
71254;HTU21D;59019;47.638;18.966;2023-02-01T02:05:39;3.36;89.55
71254;HTU21D;59019;47.638;18.966;2023-02-01T02:08:04;3.40;89.37
71254;HTU21D;59019;47.638;18.966;2023-02-01T02:10:31;3.41;89.32
71254;HTU21D;59019;47.638;18.966;2023-02-01T02:13:16;3.31;89.52
71254;HTU21D;59019;47.638;18.966;2023-02-01T02:15:50;3.33;89.64
71254;HTU21D;59019;47.638;18.966;2023-02-01T02:18:38;3.32;89.73
71254;HTU21D;59019;47.638;18.966;2023-02-01T02:21:15;3.33;89.61
71254;HTU21D;59019;47.638;18.966;2023-02-01T02:24:06;3.29;89.85
71254;HTU21D;59019;47.638;18.966;2023-02-01T02:29:55;3.45;89.52
71254;HTU21D;59019;47.638;18.966;2023-02-01T02:40:32;3.50;89.36
71254;HTU21D;59019;47.638;18.966;2023-02-01T02:45:52;3.50;89.24
71254;HTU21D;59019;47.638;18.966;2023-02-01T02:48:45;3.47;89.40
71254;HTU21D;59019;47.638;18.966;2023-02-01T02:51:34;3.53;89.79
71254;HTU21D;59019;47.638;18.966;2023-02-01T02:54:25;3.46;89.53
71254;HTU21D;59019;47.638;18.966;2023-02-01T02:57:23;3.44;89.63
71254;HTU21D;59019;47.638;18.966;2023-02-01T03:00:14;3.42;90.21
71254;HTU21D;59019;47.638;18.966;2023-02-01T03:03:00;3.39;89.81
71254;HTU21D;59019;47.638;18.966;2023-02-01T03:05:46;3.32;90.01
71254;HTU21D;59019;47.638;18.966;2023-02-01T03:08:16;3.23;90.43
71254;HTU21D;59019;47.638;18.966;2023-02-01T03:13:36;3.25;90.19
71254;HTU21D;59019;47.638;18.966;2023-02-01T03:16:24;3.03;90.63
71254;HTU21D;59019;47.638;18.966;2023-02-01T03:18:57;3.05;90.89
71254;HTU21D;59019;47.638;18.966;2023-02-01T03:24:00;2.94;91.53
71254;HTU21D;59019;47.638;18.966;2023-02-01T03:26:29;2.86;91.69
71254;HTU21D;59019;47.638;18.966;2023-02-01T03:28:59;2.95;91.86
71254;HTU21D;59019;47.638;18.966;2023-02-01T03:31:27;2.91;91.68
71254;HTU21D;59019;47.638;18.966;2023-02-01T03:33:53;2.95;91.63
71254;HTU21D;59019;47.638;18.966;2023-02-01T03:36:35;2.85;92.01
71254;HTU21D;59019;47.638;18.966;2023-02-01T03:41:40;2.93;91.97
71254;HTU21D;59019;47.638;18.966;2023-02-01T03:44:26;2.74;92.08
71254;HTU21D;59019;47.638;18.966;2023-02-01T03:47:11;2.73;92.28
71254;HTU21D;59019;47.638;18.966;2023-02-01T03:52:11;2.74;92.18
71254;HTU21D;59019;47.638;18.966;2023-02-01T03:54:38;2.70;92.38
71254;HTU21D;59019;47.638;18.966;2023-02-01T03:57:09;2.62;92.63
71254;HTU21D;59019;47.638;18.966;2023-02-01T03:59:41;2.74;92.50
71254;HTU21D;59019;47.638;18.966;2023-02-01T04:02:07;2.84;91.92
71254;HTU21D;59019;47.638;18.966;2023-02-01T04:04:36;2.75;92.28
71254;HTU21D;59019;47.638;18.966;2023-02-01T04:07:02;2.73;92.46
71254;HTU21D;59019;47.638;18.966;2023-02-01T04:09:28;2.67;92.55
71254;HTU21D;59019;47.638;18.966;2023-02-01T04:11:53;2.79;92.41
71254;HTU21D;59019;47.638;18.966;2023-02-01T04:14:19;2.75;92.41
71254;HTU21D;59019;47.638;18.966;2023-02-01T04:16:45;2.72;92.33
71254;HTU21D;59019;47.638;18.966;2023-02-01T04:19:10;2.72;92.30
71254;HTU21D;59019;47.638;18.966;2023-02-01T04:21:36;2.78;92.56
71254;HTU21D;59019;47.638;18.966;2023-02-01T04:24:01;2.69;92.45
71254;HTU21D;59019;47.638;18.966;2023-02-01T04:26:27;2.64;92.49
71254;HTU21D;59019;47.638;18.966;2023-02-01T04:28:52;2.67;92.61
71254;HTU21D;59019;47.638;18.966;2023-02-01T04:31:19;2.75;92.30
71254;HTU21D;59019;47.638;18.966;2023-02-01T04:33:54;2.83;91.85
71254;HTU21D;59019;47.638;18.966;2023-02-01T04:36:23;2.74;91.98
71254;HTU21D;59019;47.638;18.966;2023-02-01T04:38:49;2.83;92.11
71254;HTU21D;59019;47.638;18.966;2023-02-01T04:41:15;2.79;92.21
71254;HTU21D;59019;47.638;18.966;2023-02-01T04:43:45;2.82;92.09
71254;HTU21D;59019;47.638;18.966;2023-02-01T04:46:11;2.76;92.08
71254;HTU21D;59019;47.638;18.966;2023-02-01T04:48:36;2.69;91.94
71254;HTU21D;59019;47.638;18.966;2023-02-01T04:51:01;2.79;91.87
71254;HTU21D;59019;47.638;18.966;2023-02-01T04:53:27;2.88;91.44
71254;HTU21D;59019;47.638;18.966;2023-02-01T04:55:54;2.93;91.14
71254;HTU21D;59019;47.638;18.966;2023-02-01T04:58:20;3.01;91.15
71254;HTU21D;59019;47.638;18.966;2023-02-01T05:00:45;3.01;91.05
71254;HTU21D;59019;47.638;18.966;2023-02-01T05:03:11;3.14;90.60
71254;HTU21D;59019;47.638;18.966;2023-02-01T05:05:36;3.24;89.85
71254;HTU21D;59019;47.638;18.966;2023-02-01T05:08:02;3.29;89.41
71254;HTU21D;59019;47.638;18.966;2023-02-01T05:10:28;3.31;89.25
71254;HTU21D;59019;47.638;18.966;2023-02-01T05:12:53;3.38;88.28
71254;HTU21D;59019;47.638;18.966;2023-02-01T05:15:38;3.60;86.96
71254;HTU21D;59019;47.638;18.966;2023-02-01T05:18:04;3.71;86.49
71254;HTU21D;59019;47.638;18.966;2023-02-01T05:20:29;3.76;86.00
71254;HTU21D;59019;47.638;18.966;2023-02-01T05:22:55;3.82;85.89
71254;HTU21D;59019;47.638;18.966;2023-02-01T05:25:20;3.91;85.76
71254;HTU21D;59019;47.638;18.966;2023-02-01T05:27:46;3.91;85.74
71254;HTU21D;59019;47.638;18.966;2023-02-01T05:30:12;3.78;86.41
71254;HTU21D;59019;47.638;18.966;2023-02-01T05:32:37;3.83;86.48
71254;HTU21D;59019;47.638;18.966;2023-02-01T05:35:03;3.88;86.23
71254;HTU21D;59019;47.638;18.966;2023-02-01T05:37:29;3.92;86.01
71254;HTU21D;59019;47.638;18.966;2023-02-01T05:39:55;4.05;85.48
71254;HTU21D;59019;47.638;18.966;2023-02-01T05:42:22;4.02;85.86
71254;HTU21D;59019;47.638;18.966;2023-02-01T05:44:47;3.99;85.64
71254;HTU21D;59019;47.638;18.966;2023-02-01T05:47:13;3.95;86.16
71254;HTU21D;59019;47.638;18.966;2023-02-01T05:49:39;3.82;86.54
71254;HTU21D;59019;47.638;18.966;2023-02-01T05:52:04;3.79;87.07
71254;HTU21D;59019;47.638;18.966;2023-02-01T05:54:30;3.87;87.20
71254;HTU21D;59019;47.638;18.966;2023-02-01T05:56:55;3.79;87.26
71254;HTU21D;59019;47.638;18.966;2023-02-01T05:59:21;3.72;87.86
71254;HTU21D;59019;47.638;18.966;2023-02-01T06:01:46;3.76;87.88
71254;HTU21D;59019;47.638;18.966;2023-02-01T06:04:12;3.70;88.06
71254;HTU21D;59019;47.638;18.966;2023-02-01T06:06:37;3.54;88.36
71254;HTU21D;59019;47.638;18.966;2023-02-01T06:09:03;3.62;88.09
71254;HTU21D;59019;47.638;18.966;2023-02-01T06:11:29;3.52;88.37
71254;HTU21D;59019;47.638;18.966;2023-02-01T06:13:54;3.54;88.46
71254;HTU21D;59019;47.638;18.966;2023-02-01T06:16:21;3.49;88.63
71254;HTU21D;59019;47.638;18.966;2023-02-01T06:18:47;3.50;88.43
71254;HTU21D;59019;47.638;18.966;2023-02-01T06:21:14;3.59;88.24
71254;HTU21D;59019;47.638;18.966;2023-02-01T06:23:49;3.52;88.38
71254;HTU21D;59019;47.638;18.966;2023-02-01T06:26:15;3.54;88.57
71254;HTU21D;59019;47.638;18.966;2023-02-01T06:28:42;3.52;88.68
71254;HTU21D;59019;47.638;18.966;2023-02-01T06:31:08;3.44;88.77
71254;HTU21D;59019;47.638;18.966;2023-02-01T06:33:34;3.38;89.25
71254;HTU21D;59019;47.638;18.966;2023-02-01T06:36:01;3.25;89.75
71254;HTU21D;59019;47.638;18.966;2023-02-01T06:38:27;3.32;89.95
71254;HTU21D;59019;47.638;18.966;2023-02-01T06:40:54;3.24;90.22
71254;HTU21D;59019;47.638;18.966;2023-02-01T06:43:21;3.18;90.47
71254;HTU21D;59019;47.638;18.966;2023-02-01T06:45:47;3.18;90.67
71254;HTU21D;59019;47.638;18.966;2023-02-01T06:48:12;3.19;90.90
71254;HTU21D;59019;47.638;18.966;2023-02-01T06:50:38;3.18;91.02
71254;HTU21D;59019;47.638;18.966;2023-02-01T06:53:03;3.18;90.92
71254;HTU21D;59019;47.638;18.966;2023-02-01T06:55:29;3.18;91.08
71254;HTU21D;59019;47.638;18.966;2023-02-01T06:57:55;3.16;91.33
71254;HTU21D;59019;47.638;18.966;2023-02-01T07:00:22;3.13;90.94
71254;HTU21D;59019;47.638;18.966;2023-02-01T07:02:47;3.16;90.84
71254;HTU21D;59019;47.638;18.966;2023-02-01T07:05:13;3.24;90.57
71254;HTU21D;59019;47.638;18.966;2023-02-01T07:07:38;3.11;90.86
71254;HTU21D;59019;47.638;18.966;2023-02-01T07:10:04;3.10;91.29
71254;HTU21D;59019;47.638;18.966;2023-02-01T07:12:30;3.08;91.43
71254;HTU21D;59019;47.638;18.966;2023-02-01T07:14:55;3.21;91.49
71254;HTU21D;59019;47.638;18.966;2023-02-01T07:17:22;3.31;91.51
71254;HTU21D;59019;47.638;18.966;2023-02-01T07:19:48;3.35;91.15
71254;HTU21D;59019;47.638;18.966;2023-02-01T07:22:16;3.41;90.95
71254;HTU21D;59019;47.638;18.966;2023-02-01T07:24:42;3.58;90.63
71254;HTU21D;59019;47.638;18.966;2023-02-01T07:27:07;3.63;90.21
71254;HTU21D;59019;47.638;18.966;2023-02-01T07:29:33;3.70;90.12
71254;HTU21D;59019;47.638;18.966;2023-02-01T07:31:58;3.87;89.60
71254;HTU21D;59019;47.638;18.966;2023-02-01T07:34:25;3.84;89.29
71254;HTU21D;59019;47.638;18.966;2023-02-01T07:36:51;3.93;89.31
71254;HTU21D;59019;47.638;18.966;2023-02-01T07:39:16;4.10;89.33
71254;HTU21D;59019;47.638;18.966;2023-02-01T07:41:42;4.18;89.23
71254;HTU21D;59019;47.638;18.966;2023-02-01T07:44:07;4.16;88.64
71254;HTU21D;59019;47.638;18.966;2023-02-01T07:46:33;4.43;88.73
71254;HTU21D;59019;47.638;18.966;2023-02-01T07:48:59;4.52;87.84
71254;HTU21D;59019;47.638;18.966;2023-02-01T07:51:24;4.43;87.72
71254;HTU21D;59019;47.638;18.966;2023-02-01T07:53:50;4.56;87.36
71254;HTU21D;59019;47.638;18.966;2023-02-01T07:56:19;4.61;86.77
71254;HTU21D;59019;47.638;18.966;2023-02-01T07:58:53;4.57;86.78
71254;HTU21D;59019;47.638;18.966;2023-02-01T08:01:24;4.45;87.18
71254;HTU21D;59019;47.638;18.966;2023-02-01T08:03:58;4.45;88.41
71254;HTU21D;59019;47.638;18.966;2023-02-01T08:06:27;4.59;88.76
71254;HTU21D;59019;47.638;18.966;2023-02-01T08:08:53;4.49;86.94
71254;HTU21D;59019;47.638;18.966;2023-02-01T08:11:20;4.45;87.44
71254;HTU21D;59019;47.638;18.966;2023-02-01T08:13:46;4.35;86.42
71254;HTU21D;59019;47.638;18.966;2023-02-01T08:16:13;4.23;86.48
71254;HTU21D;59019;47.638;18.966;2023-02-01T08:18:40;4.37;86.66
71254;HTU21D;59019;47.638;18.966;2023-02-01T08:21:18;4.46;85.98
71254;HTU21D;59019;47.638;18.966;2023-02-01T08:23:44;4.46;86.00
71254;HTU21D;59019;47.638;18.966;2023-02-01T08:26:22;4.53;85.70
71254;HTU21D;59019;47.638;18.966;2023-02-01T08:28:57;4.51;85.67
71254;HTU21D;59019;47.638;18.966;2023-02-01T08:31:26;4.48;85.89
71254;HTU21D;59019;47.638;18.966;2023-02-01T08:33:54;4.56;85.74
71254;HTU21D;59019;47.638;18.966;2023-02-01T08:36:21;4.52;85.90
71254;HTU21D;59019;47.638;18.966;2023-02-01T08:38:47;4.48;85.85
71254;HTU21D;59019;47.638;18.966;2023-02-01T08:41:15;4.63;85.39
71254;HTU21D;59019;47.638;18.966;2023-02-01T08:43:41;4.61;85.15
71254;HTU21D;59019;47.638;18.966;2023-02-01T08:46:07;4.75;85.42
71254;HTU21D;59019;47.638;18.966;2023-02-01T08:48:34;5.04;85.14
71254;HTU21D;59019;47.638;18.966;2023-02-01T08:51:02;5.46;84.73
71254;HTU21D;59019;47.638;18.966;2023-02-01T08:53:28;5.75;83.59
71254;HTU21D;59019;47.638;18.966;2023-02-01T08:55:54;6.06;82.27
71254;HTU21D;59019;47.638;18.966;2023-02-01T08:58:20;6.36;81.25
71254;HTU21D;59019;47.638;18.966;2023-02-01T09:00:47;6.60;80.46
71254;HTU21D;59019;47.638;18.966;2023-02-01T09:03:14;6.73;79.82
71254;HTU21D;59019;47.638;18.966;2023-02-01T09:05:40;6.97;79.54
71254;HTU21D;59019;47.638;18.966;2023-02-01T09:08:06;6.74;78.74
71254;HTU21D;59019;47.638;18.966;2023-02-01T09:10:32;6.84;78.95
71254;HTU21D;59019;47.638;18.966;2023-02-01T09:12:58;6.60;79.05
71254;HTU21D;59019;47.638;18.966;2023-02-01T09:15:23;6.73;79.19
71254;HTU21D;59019;47.638;18.966;2023-02-01T09:17:49;6.71;79.74
71254;HTU21D;59019;47.638;18.966;2023-02-01T09:20:15;6.52;80.39
71254;HTU21D;59019;47.638;18.966;2023-02-01T09:22:41;6.36;81.22
71254;HTU21D;59019;47.638;18.966;2023-02-01T09:25:07;5.98;81.94
71254;HTU21D;59019;47.638;18.966;2023-02-01T09:27:33;6.10;82.64
71254;HTU21D;59019;47.638;18.966;2023-02-01T09:29:59;6.25;84.15
71254;HTU21D;59019;47.638;18.966;2023-02-01T09:32:25;5.99;84.79
71254;HTU21D;59019;47.638;18.966;2023-02-01T09:34:51;6.16;85.68
71254;HTU21D;59019;47.638;18.966;2023-02-01T09:37:18;6.31;85.54
71254;HTU21D;59019;47.638;18.966;2023-02-01T09:39:43;6.22;85.06
71254;HTU21D;59019;47.638;18.966;2023-02-01T09:47:20;6.05;85.36
71254;HTU21D;59019;47.638;18.966;2023-02-01T09:49:51;6.06;85.40
71254;HTU21D;59019;47.638;18.966;2023-02-01T09:52:31;6.14;86.38
71254;HTU21D;59019;47.638;18.966;2023-02-01T09:55:03;6.30;84.71
71254;HTU21D;59019;47.638;18.966;2023-02-01T10:00:23;6.65;83.61
71254;HTU21D;59019;47.638;18.966;2023-02-01T10:02:51;6.37;82.96
71254;HTU21D;59019;47.638;18.966;2023-02-01T10:05:24;6.08;84.15
71254;HTU21D;59019;47.638;18.966;2023-02-01T10:13:15;6.45;83.20
71254;HTU21D;59019;47.638;18.966;2023-02-01T10:15:58;6.79;83.28
71254;HTU21D;59019;47.638;18.966;2023-02-01T10:23:59;6.78;83.28
71254;HTU21D;59019;47.638;18.966;2023-02-01T10:26:38;7.02;83.20
71254;HTU21D;59019;47.638;18.966;2023-02-01T10:29:17;7.54;81.98
71254;HTU21D;59019;47.638;18.966;2023-02-01T10:31:44;7.27;81.24
71254;HTU21D;59019;47.638;18.966;2023-02-01T10:34:27;6.81;81.20
71254;HTU21D;59019;47.638;18.966;2023-02-01T10:39:49;7.82;81.53
71254;HTU21D;59019;47.638;18.966;2023-02-01T10:42:18;7.96;80.24
71254;HTU21D;59019;47.638;18.966;2023-02-01T10:44:46;7.79;80.15
71254;HTU21D;59019;47.638;18.966;2023-02-01T10:47:13;7.83;80.36
71254;HTU21D;59019;47.638;18.966;2023-02-01T10:52:40;7.38;80.90
71254;HTU21D;59019;47.638;18.966;2023-02-01T10:55:30;7.58;80.56
71254;HTU21D;59019;47.638;18.966;2023-02-01T10:57:59;7.29;80.63
71254;HTU21D;59019;47.638;18.966;2023-02-01T11:00:26;7.22;81.05
71254;HTU21D;59019;47.638;18.966;2023-02-01T11:02:53;6.65;80.90
71254;HTU21D;59019;47.638;18.966;2023-02-01T11:05:19;6.17;83.20
71254;HTU21D;59019;47.638;18.966;2023-02-01T11:07:53;6.50;83.21
71254;HTU21D;59019;47.638;18.966;2023-02-01T11:10:42;6.59;83.13
71254;HTU21D;59019;47.638;18.966;2023-02-01T11:13:15;6.29;83.56
71254;HTU21D;59019;47.638;18.966;2023-02-01T11:15:54;6.68;84.22
71254;HTU21D;59019;47.638;18.966;2023-02-01T11:18:28;6.99;82.87
71254;HTU21D;59019;47.638;18.966;2023-02-01T11:20:54;7.04;83.06
71254;HTU21D;59019;47.638;18.966;2023-02-01T11:23:28;6.99;83.07
71254;HTU21D;59019;47.638;18.966;2023-02-01T11:25:55;7.00;83.29
71254;HTU21D;59019;47.638;18.966;2023-02-01T11:28:24;7.03;84.03
71254;HTU21D;59019;47.638;18.966;2023-02-01T11:30:51;7.03;84.64
71254;HTU21D;59019;47.638;18.966;2023-02-01T11:33:20;6.58;86.25
71254;HTU21D;59019;47.638;18.966;2023-02-01T11:35:47;6.26;86.74
71254;HTU21D;59019;47.638;18.966;2023-02-01T11:38:28;6.12;87.90
71254;HTU21D;59019;47.638;18.966;2023-02-01T11:40:53;6.08;88.64
71254;HTU21D;59019;47.638;18.966;2023-02-01T11:43:23;6.08;89.31
71254;HTU21D;59019;47.638;18.966;2023-02-01T11:48:24;5.49;90.28
71254;HTU21D;59019;47.638;18.966;2023-02-01T11:50:57;5.05;91.89
71254;HTU21D;59019;47.638;18.966;2023-02-01T12:06:31;5.45;93.07
71254;HTU21D;59019;47.638;18.966;2023-02-01T12:31:15;4.52;96.39
71254;HTU21D;59019;47.638;18.966;2023-02-01T12:39:24;4.23;97.90
71254;HTU21D;59019;47.638;18.966;2023-02-01T12:42:03;4.27;98.04
71254;HTU21D;59019;47.638;18.966;2023-02-01T12:44:56;4.15;98.55
71254;HTU21D;59019;47.638;18.966;2023-02-01T12:47:39;4.32;98.90
71254;HTU21D;59019;47.638;18.966;2023-02-01T12:52:51;4.33;97.89
71254;HTU21D;59019;47.638;18.966;2023-02-01T12:55:24;4.38;98.78
71254;HTU21D;59019;47.638;18.966;2023-02-01T12:58:05;4.39;98.52
71254;HTU21D;59019;47.638;18.966;2023-02-01T13:03:38;4.56;98.17
71254;HTU21D;59019;47.638;18.966;2023-02-01T13:06:19;4.75;98.41
71254;HTU21D;59019;47.638;18.966;2023-02-01T13:09:00;4.89;98.01
71254;HTU21D;59019;47.638;18.966;2023-02-01T13:11:38;5.10;97.84
71254;HTU21D;59019;47.638;18.966;2023-02-01T13:14:25;5.33;98.09
71254;HTU21D;59019;47.638;18.966;2023-02-01T13:17:31;5.82;98.42
71254;HTU21D;59019;47.638;18.966;2023-02-01T13:22:41;6.23;95.97
71254;HTU21D;59019;47.638;18.966;2023-02-01T13:25:16;6.14;95.27
71254;HTU21D;59019;47.638;18.966;2023-02-01T13:27:43;5.64;95.69
71254;HTU21D;59019;47.638;18.966;2023-02-01T13:30:12;5.63;95.98
71254;HTU21D;59019;47.638;18.966;2023-02-01T13:33:08;5.56;95.74
71254;HTU21D;59019;47.638;18.966;2023-02-01T13:41:31;5.43;96.05
71254;HTU21D;59019;47.638;18.966;2023-02-01T13:44:03;5.37;96.59
71254;HTU21D;59019;47.638;18.966;2023-02-01T13:46:39;5.20;96.38
71254;HTU21D;59019;47.638;18.966;2023-02-01T13:49:06;5.15;95.92
71254;HTU21D;59019;47.638;18.966;2023-02-01T13:51:34;5.07;96.33
71254;HTU21D;59019;47.638;18.966;2023-02-01T13:54:00;5.02;97.93
71254;HTU21D;59019;47.638;18.966;2023-02-01T13:56:27;4.88;97.91
71254;HTU21D;59019;47.638;18.966;2023-02-01T13:58:52;4.95;98.16
71254;HTU21D;59019;47.638;18.966;2023-02-01T14:03:54;5.25;96.83
71254;HTU21D;59019;47.638;18.966;2023-02-01T14:11:49;4.78;93.59
71254;HTU21D;59019;47.638;18.966;2023-02-01T14:19:30;4.16;94.94
71254;HTU21D;59019;47.638;18.966;2023-02-01T14:26:59;4.07;97.32
71254;HTU21D;59019;47.638;18.966;2023-02-01T14:29:35;3.89;97.50
71254;HTU21D;59019;47.638;18.966;2023-02-01T14:32:03;3.90;97.80
71254;HTU21D;59019;47.638;18.966;2023-02-01T14:44:42;4.27;96.97
71254;HTU21D;59019;47.638;18.966;2023-02-01T14:47:25;4.29;96.56
71254;HTU21D;59019;47.638;18.966;2023-02-01T14:49:56;4.29;96.46
71254;HTU21D;59019;47.638;18.966;2023-02-01T14:52:29;4.14;96.78
71254;HTU21D;59019;47.638;18.966;2023-02-01T14:55:01;4.24;96.36
71254;HTU21D;59019;47.638;18.966;2023-02-01T14:57:27;4.22;96.81
71254;HTU21D;59019;47.638;18.966;2023-02-01T15:00:01;4.26;96.40
71254;HTU21D;59019;47.638;18.966;2023-02-01T15:02:30;4.29;96.78
71254;HTU21D;59019;47.638;18.966;2023-02-01T15:04:59;4.29;97.36
71254;HTU21D;59019;47.638;18.966;2023-02-01T15:07:26;4.20;97.60
71254;HTU21D;59019;47.638;18.966;2023-02-01T15:09:56;4.09;97.71
71254;HTU21D;59019;47.638;18.966;2023-02-01T15:12:27;4.17;98.01
71254;HTU21D;59019;47.638;18.966;2023-02-01T15:15:32;4.21;97.81
71254;HTU21D;59019;47.638;18.966;2023-02-01T15:18:01;4.05;97.13
71254;HTU21D;59019;47.638;18.966;2023-02-01T15:20:31;3.98;97.84
71254;HTU21D;59019;47.638;18.966;2023-02-01T15:23:06;4.04;97.79
71254;HTU21D;59019;47.638;18.966;2023-02-01T15:25:45;4.16;97.07
71254;HTU21D;59019;47.638;18.966;2023-02-01T15:28:15;4.17;97.49
71254;HTU21D;59019;47.638;18.966;2023-02-01T15:30:55;4.16;97.70
71254;HTU21D;59019;47.638;18.966;2023-02-01T15:33:22;4.09;97.91
71254;HTU21D;59019;47.638;18.966;2023-02-01T15:35:50;4.14;97.72
71254;HTU21D;59019;47.638;18.966;2023-02-01T15:43:36;3.79;98.72
71254;HTU21D;59019;47.638;18.966;2023-02-01T15:46:08;3.79;98.51
71254;HTU21D;59019;47.638;18.966;2023-02-01T15:48:49;3.89;98.32
71254;HTU21D;59019;47.638;18.966;2023-02-01T15:51:26;3.80;98.87
71254;HTU21D;59019;47.638;18.966;2023-02-01T15:53:58;3.89;98.61
71254;HTU21D;59019;47.638;18.966;2023-02-01T15:56:27;3.76;98.98
71254;HTU21D;59019;47.638;18.966;2023-02-01T15:58:57;3.86;98.73
71254;HTU21D;59019;47.638;18.966;2023-02-01T16:01:23;3.89;99.18
71254;HTU21D;59019;47.638;18.966;2023-02-01T16:03:49;3.85;99.64
71254;HTU21D;59019;47.638;18.966;2023-02-01T16:06:31;3.98;99.01
71254;HTU21D;59019;47.638;18.966;2023-02-01T16:11:32;3.93;99.22
71254;HTU21D;59019;47.638;18.966;2023-02-01T16:13:58;3.98;99.25
71254;HTU21D;59019;47.638;18.966;2023-02-01T16:16:26;3.98;99.35
71254;HTU21D;59019;47.638;18.966;2023-02-01T16:18:53;3.98;98.19
71254;HTU21D;59019;47.638;18.966;2023-02-01T16:21:19;4.12;98.42
71254;HTU21D;59019;47.638;18.966;2023-02-01T16:23:51;4.09;97.49
71254;HTU21D;59019;47.638;18.966;2023-02-01T16:26:17;4.10;97.59
71254;HTU21D;59019;47.638;18.966;2023-02-01T16:28:43;4.18;98.22
71254;HTU21D;59019;47.638;18.966;2023-02-01T16:31:17;4.14;97.99
71254;HTU21D;59019;47.638;18.966;2023-02-01T16:33:50;4.15;98.17
71254;HTU21D;59019;47.638;18.966;2023-02-01T16:36:16;4.21;98.21
71254;HTU21D;59019;47.638;18.966;2023-02-01T16:38:42;4.13;98.10
71254;HTU21D;59019;47.638;18.966;2023-02-01T16:41:18;4.10;98.52
71254;HTU21D;59019;47.638;18.966;2023-02-01T16:43:44;4.09;99.09
71254;HTU21D;59019;47.638;18.966;2023-02-01T16:46:15;3.95;99.03
71254;HTU21D;59019;47.638;18.966;2023-02-01T16:48:44;4.09;98.35
71254;HTU21D;59019;47.638;18.966;2023-02-01T16:51:13;4.09;98.70
71254;HTU21D;59019;47.638;18.966;2023-02-01T16:53:39;4.07;98.71
71254;HTU21D;59019;47.638;18.966;2023-02-01T16:56:30;4.10;98.14
71254;HTU21D;59019;47.638;18.966;2023-02-01T16:58:56;4.07;98.32
71254;HTU21D;59019;47.638;18.966;2023-02-01T17:01:22;4.14;98.33
71254;HTU21D;59019;47.638;18.966;2023-02-01T17:03:49;4.17;98.35
71254;HTU21D;59019;47.638;18.966;2023-02-01T17:06:19;4.29;98.31
71254;HTU21D;59019;47.638;18.966;2023-02-01T17:08:49;4.19;98.18
71254;HTU21D;59019;47.638;18.966;2023-02-01T17:11:15;4.07;98.66
71254;HTU21D;59019;47.638;18.966;2023-02-01T17:13:42;3.97;98.41
71254;HTU21D;59019;47.638;18.966;2023-02-01T17:16:27;4.07;98.53
71254;HTU21D;59019;47.638;18.966;2023-02-01T17:19:03;3.97;98.17
71254;HTU21D;59019;47.638;18.966;2023-02-01T17:21:36;3.89;98.00
71254;HTU21D;59019;47.638;18.966;2023-02-01T17:24:03;3.97;97.57
71254;HTU21D;59019;47.638;18.966;2023-02-01T17:26:29;3.95;97.88
71254;HTU21D;59019;47.638;18.966;2023-02-01T17:28:54;3.91;97.84
71254;HTU21D;59019;47.638;18.966;2023-02-01T17:31:20;3.88;97.76
71254;HTU21D;59019;47.638;18.966;2023-02-01T17:33:45;3.85;97.85
71254;HTU21D;59019;47.638;18.966;2023-02-01T17:36:15;3.92;98.09
71254;HTU21D;59019;47.638;18.966;2023-02-01T17:38:41;3.95;97.90
71254;HTU21D;59019;47.638;18.966;2023-02-01T17:41:12;4.05;97.23
71254;HTU21D;59019;47.638;18.966;2023-02-01T17:43:39;4.06;96.97
71254;HTU21D;59019;47.638;18.966;2023-02-01T17:46:13;4.01;97.13
71254;HTU21D;59019;47.638;18.966;2023-02-01T17:48:39;4.09;97.71
71254;HTU21D;59019;47.638;18.966;2023-02-01T17:53:39;4.20;97.05
71254;HTU21D;59019;47.638;18.966;2023-02-01T17:56:05;4.15;96.60
71254;HTU21D;59019;47.638;18.966;2023-02-01T17:58:30;4.21;96.61